sensor_id;sensor_type;location;lat;lon;timestamp;P1;durP1;ratioP1;P2;durP2;ratioP2
40150;SDS011;25866;52.420;10.640;2023-01-05T00:01:41;12.98;;;1.75;;
40150;SDS011;25866;52.420;10.640;2023-01-05T00:04:06;7.13;;;1.90;;
40150;SDS011;25866;52.420;10.640;2023-01-05T00:06:32;7.68;;;1.98;;
40150;SDS011;25866;52.420;10.640;2023-01-05T00:08:59;9.87;;;2.00;;
40150;SDS011;25866;52.420;10.640;2023-01-05T00:11:26;8.25;;;1.85;;
40150;SDS011;25866;52.420;10.640;2023-01-05T00:14:14;12.85;;;2.63;;
40150;SDS011;25866;52.420;10.640;2023-01-05T00:17:04;11.25;;;1.98;;
40150;SDS011;25866;52.420;10.640;2023-01-05T00:19:55;9.88;;;1.92;;
40150;SDS011;25866;52.420;10.640;2023-01-05T00:22:47;11.82;;;2.22;;
40150;SDS011;25866;52.420;10.640;2023-01-05T00:27:48;15.07;;;3.15;;
40150;SDS011;25866;52.420;10.640;2023-01-05T00:30:22;11.90;;;2.33;;
40150;SDS011;25866;52.420;10.640;2023-01-05T00:32:50;9.98;;;1.83;;
40150;SDS011;25866;52.420;10.640;2023-01-05T00:35:16;11.13;;;1.80;;
40150;SDS011;25866;52.420;10.640;2023-01-05T00:37:42;12.77;;;2.25;;
40150;SDS011;25866;52.420;10.640;2023-01-05T00:42:59;7.68;;;2.00;;
40150;SDS011;25866;52.420;10.640;2023-01-05T00:45:24;16.27;;;2.63;;
40150;SDS011;25866;52.420;10.640;2023-01-05T00:47:50;11.43;;;2.40;;
40150;SDS011;25866;52.420;10.640;2023-01-05T00:50:18;9.88;;;2.08;;
40150;SDS011;25866;52.420;10.640;2023-01-05T00:52:44;8.40;;;1.92;;
40150;SDS011;25866;52.420;10.640;2023-01-05T00:55:11;14.05;;;2.28;;
40150;SDS011;25866;52.420;10.640;2023-01-05T00:57:37;13.27;;;2.17;;
40150;SDS011;25866;52.420;10.640;2023-01-05T01:00:05;12.13;;;1.90;;
40150;SDS011;25866;52.420;10.640;2023-01-05T01:02:33;14.68;;;2.90;;
40150;SDS011;25866;52.420;10.640;2023-01-05T01:04:59;12.60;;;2.33;;
40150;SDS011;25866;52.420;10.640;2023-01-05T01:07:24;12.32;;;2.60;;
40150;SDS011;25866;52.420;10.640;2023-01-05T01:09:50;11.23;;;2.40;;
40150;SDS011;25866;52.420;10.640;2023-01-05T01:12:17;8.27;;;1.98;;
40150;SDS011;25866;52.420;10.640;2023-01-05T01:14:45;14.68;;;2.85;;
40150;SDS011;25866;52.420;10.640;2023-01-05T01:17:12;10.50;;;2.25;;
40150;SDS011;25866;52.420;10.640;2023-01-05T01:19:38;11.23;;;2.33;;
40150;SDS011;25866;52.420;10.640;2023-01-05T01:22:12;13.55;;;2.60;;
40150;SDS011;25866;52.420;10.640;2023-01-05T01:24:41;10.32;;;2.35;;
40150;SDS011;25866;52.420;10.640;2023-01-05T01:27:06;10.52;;;2.10;;
40150;SDS011;25866;52.420;10.640;2023-01-05T01:29:32;9.80;;;2.13;;
40150;SDS011;25866;52.420;10.640;2023-01-05T01:34:46;15.50;;;2.40;;
40150;SDS011;25866;52.420;10.640;2023-01-05T01:37:12;10.95;;;2.30;;
40150;SDS011;25866;52.420;10.640;2023-01-05T01:39:39;12.75;;;2.58;;
40150;SDS011;25866;52.420;10.640;2023-01-05T01:42:05;10.90;;;2.17;;
40150;SDS011;25866;52.420;10.640;2023-01-05T01:44:52;13.82;;;2.22;;
40150;SDS011;25866;52.420;10.640;2023-01-05T01:47:41;9.63;;;2.00;;
40150;SDS011;25866;52.420;10.640;2023-01-05T01:52:37;10.73;;;2.45;;
40150;SDS011;25866;52.420;10.640;2023-01-05T01:55:04;15.70;;;2.92;;
40150;SDS011;25866;52.420;10.640;2023-01-05T01:57:30;14.27;;;2.05;;
40150;SDS011;25866;52.420;10.640;2023-01-05T01:59:57;14.23;;;2.30;;
40150;SDS011;25866;52.420;10.640;2023-01-05T02:02:26;13.80;;;2.78;;
40150;SDS011;25866;52.420;10.640;2023-01-05T02:04:52;13.82;;;3.03;;
40150;SDS011;25866;52.420;10.640;2023-01-05T02:07:22;13.27;;;2.38;;
40150;SDS011;25866;52.420;10.640;2023-01-05T02:09:49;13.27;;;2.72;;
40150;SDS011;25866;52.420;10.640;2023-01-05T02:21:11;19.20;;;2.80;;
40150;SDS011;25866;52.420;10.640;2023-01-05T02:27:01;17.63;;;3.10;;
40150;SDS011;25866;52.420;10.640;2023-01-05T02:32:22;10.65;;;2.75;;
40150;SDS011;25866;52.420;10.640;2023-01-05T02:37:56;10.80;;;2.20;;
40150;SDS011;25866;52.420;10.640;2023-01-05T02:40:48;12.18;;;2.38;;
40150;SDS011;25866;52.420;10.640;2023-01-05T02:43:18;10.18;;;2.20;;
40150;SDS011;25866;52.420;10.640;2023-01-05T02:45:45;13.40;;;2.50;;
40150;SDS011;25866;52.420;10.640;2023-01-05T02:48:12;9.55;;;2.15;;
40150;SDS011;25866;52.420;10.640;2023-01-05T02:50:58;8.45;;;2.00;;
40150;SDS011;25866;52.420;10.640;2023-01-05T02:53:32;14.02;;;2.03;;
40150;SDS011;25866;52.420;10.640;2023-01-05T02:56:14;16.08;;;2.08;;
40150;SDS011;25866;52.420;10.640;2023-01-05T02:59:18;11.13;;;2.10;;
40150;SDS011;25866;52.420;10.640;2023-01-05T03:01:52;10.63;;;2.72;;
40150;SDS011;25866;52.420;10.640;2023-01-05T03:04:58;8.50;;;1.85;;
40150;SDS011;25866;52.420;10.640;2023-01-05T03:07:30;9.10;;;1.92;;
40150;SDS011;25866;52.420;10.640;2023-01-05T03:10:00;7.30;;;2.15;;
40150;SDS011;25866;52.420;10.640;2023-01-05T03:12:46;10.20;;;2.08;;
40150;SDS011;25866;52.420;10.640;2023-01-05T03:15:36;10.18;;;1.75;;
40150;SDS011;25866;52.420;10.640;2023-01-05T03:18:04;8.50;;;1.65;;
40150;SDS011;25866;52.420;10.640;2023-01-05T03:20:33;10.18;;;2.15;;
40150;SDS011;25866;52.420;10.640;2023-01-05T03:23:02;8.57;;;1.90;;
40150;SDS011;25866;52.420;10.640;2023-01-05T03:25:50;8.45;;;1.75;;
40150;SDS011;25866;52.420;10.640;2023-01-05T03:29:09;10.50;;;1.70;;
40150;SDS011;25866;52.420;10.640;2023-01-05T03:31:50;11.80;;;1.92;;
40150;SDS011;25866;52.420;10.640;2023-01-05T03:40:27;7.88;;;1.90;;
40150;SDS011;25866;52.420;10.640;2023-01-05T03:42:55;7.22;;;1.67;;
40150;SDS011;25866;52.420;10.640;2023-01-05T03:45:22;7.00;;;1.50;;
40150;SDS011;25866;52.420;10.640;2023-01-05T03:47:50;5.47;;;1.17;;
40150;SDS011;25866;52.420;10.640;2023-01-05T03:50:16;9.38;;;1.77;;
40150;SDS011;25866;52.420;10.640;2023-01-05T03:52:42;8.05;;;1.73;;
40150;SDS011;25866;52.420;10.640;2023-01-05T03:55:07;10.98;;;1.73;;
40150;SDS011;25866;52.420;10.640;2023-01-05T03:57:34;11.82;;;1.90;;
40150;SDS011;25866;52.420;10.640;2023-01-05T04:00:00;8.13;;;1.50;;
40150;SDS011;25866;52.420;10.640;2023-01-05T04:02:25;9.38;;;1.83;;
40150;SDS011;25866;52.420;10.640;2023-01-05T04:04:51;13.63;;;1.98;;
40150;SDS011;25866;52.420;10.640;2023-01-05T04:07:17;10.55;;;2.28;;
40150;SDS011;25866;52.420;10.640;2023-01-05T04:09:42;10.43;;;1.98;;
40150;SDS011;25866;52.420;10.640;2023-01-05T04:12:08;9.25;;;1.88;;
40150;SDS011;25866;52.420;10.640;2023-01-05T04:14:33;8.30;;;1.60;;
40150;SDS011;25866;52.420;10.640;2023-01-05T04:16:59;6.15;;;2.00;;
40150;SDS011;25866;52.420;10.640;2023-01-05T04:19:25;9.27;;;1.52;;
40150;SDS011;25866;52.420;10.640;2023-01-05T04:21:51;8.98;;;2.33;;
40150;SDS011;25866;52.420;10.640;2023-01-05T04:24:16;10.55;;;2.05;;
40150;SDS011;25866;52.420;10.640;2023-01-05T04:26:42;14.73;;;2.08;;
40150;SDS011;25866;52.420;10.640;2023-01-05T04:29:08;13.68;;;2.53;;
40150;SDS011;25866;52.420;10.640;2023-01-05T04:31:35;7.72;;;2.05;;
40150;SDS011;25866;52.420;10.640;2023-01-05T04:34:00;10.45;;;2.13;;
40150;SDS011;25866;52.420;10.640;2023-01-05T04:36:26;14.38;;;2.25;;
40150;SDS011;25866;52.420;10.640;2023-01-05T04:38:52;15.32;;;2.63;;
40150;SDS011;25866;52.420;10.640;2023-01-05T04:41:19;8.40;;;2.42;;
40150;SDS011;25866;52.420;10.640;2023-01-05T04:43:46;12.27;;;2.35;;
40150;SDS011;25866;52.420;10.640;2023-01-05T04:46:12;10.98;;;2.30;;
40150;SDS011;25866;52.420;10.640;2023-01-05T04:48:37;12.82;;;2.13;;
40150;SDS011;25866;52.420;10.640;2023-01-05T04:51:03;10.85;;;2.00;;
40150;SDS011;25866;52.420;10.640;2023-01-05T04:53:29;9.57;;;2.00;;
40150;SDS011;25866;52.420;10.640;2023-01-05T04:55:55;10.73;;;1.98;;
40150;SDS011;25866;52.420;10.640;2023-01-05T04:58:20;14.57;;;2.30;;
40150;SDS011;25866;52.420;10.640;2023-01-05T05:00:47;12.63;;;2.00;;
40150;SDS011;25866;52.420;10.640;2023-01-05T05:03:14;7.25;;;2.28;;
40150;SDS011;25866;52.420;10.640;2023-01-05T05:05:39;9.02;;;2.25;;
40150;SDS011;25866;52.420;10.640;2023-01-05T05:08:05;7.70;;;2.20;;
40150;SDS011;25866;52.420;10.640;2023-01-05T05:10:31;12.52;;;2.53;;
40150;SDS011;25866;52.420;10.640;2023-01-05T05:12:57;10.15;;;2.63;;
40150;SDS011;25866;52.420;10.640;2023-01-05T05:15:23;11.00;;;2.75;;
40150;SDS011;25866;52.420;10.640;2023-01-05T05:17:48;10.57;;;2.20;;
40150;SDS011;25866;52.420;10.640;2023-01-05T05:20:14;14.27;;;2.58;;
40150;SDS011;25866;52.420;10.640;2023-01-05T05:22:40;15.30;;;2.63;;
40150;SDS011;25866;52.420;10.640;2023-01-05T05:25:06;11.00;;;2.53;;
40150;SDS011;25866;52.420;10.640;2023-01-05T05:27:32;11.63;;;2.35;;
40150;SDS011;25866;52.420;10.640;2023-01-05T05:29:57;10.73;;;2.15;;
40150;SDS011;25866;52.420;10.640;2023-01-05T05:32:23;13.18;;;3.33;;
40150;SDS011;25866;52.420;10.640;2023-01-05T05:34:49;13.13;;;2.53;;
40150;SDS011;25866;52.420;10.640;2023-01-05T05:37:15;12.15;;;2.70;;
40150;SDS011;25866;52.420;10.640;2023-01-05T05:39:40;11.25;;;2.25;;
40150;SDS011;25866;52.420;10.640;2023-01-05T05:42:06;8.65;;;2.00;;
40150;SDS011;25866;52.420;10.640;2023-01-05T05:44:32;11.23;;;1.98;;
40150;SDS011;25866;52.420;10.640;2023-01-05T05:46:57;11.70;;;2.30;;
40150;SDS011;25866;52.420;10.640;2023-01-05T05:49:23;10.75;;;2.20;;
40150;SDS011;25866;52.420;10.640;2023-01-05T05:51:49;13.30;;;2.38;;
40150;SDS011;25866;52.420;10.640;2023-01-05T05:54:14;7.35;;;1.70;;
40150;SDS011;25866;52.420;10.640;2023-01-05T05:56:40;12.37;;;2.10;;
40150;SDS011;25866;52.420;10.640;2023-01-05T05:59:06;11.90;;;1.80;;
40150;SDS011;25866;52.420;10.640;2023-01-05T06:01:32;13.98;;;2.17;;
40150;SDS011;25866;52.420;10.640;2023-01-05T06:03:58;15.40;;;1.73;;
40150;SDS011;25866;52.420;10.640;2023-01-05T06:06:24;11.15;;;1.98;;
40150;SDS011;25866;52.420;10.640;2023-01-05T06:08:51;13.10;;;2.10;;
40150;SDS011;25866;52.420;10.640;2023-01-05T06:11:16;12.83;;;2.63;;
40150;SDS011;25866;52.420;10.640;2023-01-05T06:13:44;5.60;;;1.37;;
40150;SDS011;25866;52.420;10.640;2023-01-05T06:16:10;8.13;;;1.88;;
40150;SDS011;25866;52.420;10.640;2023-01-05T06:18:36;10.63;;;2.20;;
40150;SDS011;25866;52.420;10.640;2023-01-05T06:21:01;8.68;;;1.55;;
40150;SDS011;25866;52.420;10.640;2023-01-05T06:23:27;10.52;;;1.73;;
40150;SDS011;25866;52.420;10.640;2023-01-05T06:25:53;12.40;;;2.15;;
40150;SDS011;25866;52.420;10.640;2023-01-05T06:28:19;11.17;;;1.97;;
40150;SDS011;25866;52.420;10.640;2023-01-05T06:30:44;10.27;;;2.17;;
40150;SDS011;25866;52.420;10.640;2023-01-05T06:33:10;11.60;;;2.53;;
40150;SDS011;25866;52.420;10.640;2023-01-05T06:35:36;12.27;;;2.15;;
40150;SDS011;25866;52.420;10.640;2023-01-05T06:38:05;13.63;;;2.25;;
40150;SDS011;25866;52.420;10.640;2023-01-05T06:40:30;8.45;;;1.73;;
40150;SDS011;25866;52.420;10.640;2023-01-05T06:42:56;8.20;;;2.15;;
40150;SDS011;25866;52.420;10.640;2023-01-05T06:45:22;13.48;;;2.97;;
40150;SDS011;25866;52.420;10.640;2023-01-05T06:47:47;12.52;;;2.45;;
40150;SDS011;25866;52.420;10.640;2023-01-05T06:50:14;8.63;;;2.17;;
40150;SDS011;25866;52.420;10.640;2023-01-05T06:52:40;8.82;;;2.20;;
40150;SDS011;25866;52.420;10.640;2023-01-05T06:55:07;10.45;;;2.65;;
40150;SDS011;25866;52.420;10.640;2023-01-05T06:57:34;12.67;;;2.60;;
40150;SDS011;25866;52.420;10.640;2023-01-05T07:00:01;9.43;;;2.40;;
40150;SDS011;25866;52.420;10.640;2023-01-05T07:02:32;9.77;;;1.80;;
40150;SDS011;25866;52.420;10.640;2023-01-05T07:04:58;12.67;;;1.80;;
40150;SDS011;25866;52.420;10.640;2023-01-05T07:07:24;11.83;;;2.37;;
40150;SDS011;25866;52.420;10.640;2023-01-05T07:09:49;6.83;;;1.87;;
40150;SDS011;25866;52.420;10.640;2023-01-05T07:12:16;10.35;;;2.33;;
40150;SDS011;25866;52.420;10.640;2023-01-05T07:14:42;9.13;;;2.38;;
40150;SDS011;25866;52.420;10.640;2023-01-05T07:17:08;6.27;;;1.53;;
40150;SDS011;25866;52.420;10.640;2023-01-05T07:19:34;12.40;;;1.80;;
40150;SDS011;25866;52.420;10.640;2023-01-05T07:21:59;8.93;;;2.08;;
40150;SDS011;25866;52.420;10.640;2023-01-05T07:24:25;10.25;;;1.80;;
40150;SDS011;25866;52.420;10.640;2023-01-05T07:26:51;8.03;;;1.70;;
40150;SDS011;25866;52.420;10.640;2023-01-05T07:29:23;7.18;;;1.42;;
40150;SDS011;25866;52.420;10.640;2023-01-05T07:34:34;7.20;;;1.43;;
40150;SDS011;25866;52.420;10.640;2023-01-05T07:36:59;8.57;;;1.73;;
40150;SDS011;25866;52.420;10.640;2023-01-05T07:39:33;6.70;;;1.40;;
40150;SDS011;25866;52.420;10.640;2023-01-05T07:45:03;7.80;;;1.60;;
40150;SDS011;25866;52.420;10.640;2023-01-05T07:47:31;9.98;;;1.70;;
40150;SDS011;25866;52.420;10.640;2023-01-05T07:52:29;6.00;;;1.30;;
40150;SDS011;25866;52.420;10.640;2023-01-05T08:00:27;11.93;;;1.83;;
40150;SDS011;25866;52.420;10.640;2023-01-05T08:02:53;7.30;;;1.85;;
40150;SDS011;25866;52.420;10.640;2023-01-05T08:05:32;11.27;;;2.10;;
40150;SDS011;25866;52.420;10.640;2023-01-05T08:08:01;12.53;;;2.30;;
40150;SDS011;25866;52.420;10.640;2023-01-05T08:10:27;8.30;;;2.10;;
40150;SDS011;25866;52.420;10.640;2023-01-05T08:12:53;9.87;;;2.23;;
40150;SDS011;25866;52.420;10.640;2023-01-05T08:15:38;8.20;;;1.83;;
40150;SDS011;25866;52.420;10.640;2023-01-05T08:18:04;12.77;;;1.90;;
40150;SDS011;25866;52.420;10.640;2023-01-05T08:20:29;11.70;;;1.87;;
40150;SDS011;25866;52.420;10.640;2023-01-05T08:22:55;13.77;;;2.27;;
40150;SDS011;25866;52.420;10.640;2023-01-05T08:25:21;11.25;;;1.80;;
40150;SDS011;25866;52.420;10.640;2023-01-05T08:27:47;9.65;;;2.17;;
40150;SDS011;25866;52.420;10.640;2023-01-05T08:30:13;10.63;;;2.37;;
40150;SDS011;25866;52.420;10.640;2023-01-05T08:32:39;6.10;;;1.70;;
40150;SDS011;25866;52.420;10.640;2023-01-05T08:35:06;9.10;;;2.30;;
40150;SDS011;25866;52.420;10.640;2023-01-05T08:37:32;9.73;;;1.92;;
40150;SDS011;25866;52.420;10.640;2023-01-05T08:39:57;7.68;;;1.55;;
40150;SDS011;25866;52.420;10.640;2023-01-05T08:42:23;9.17;;;1.60;;
40150;SDS011;25866;52.420;10.640;2023-01-05T08:44:49;7.82;;;2.25;;
40150;SDS011;25866;52.420;10.640;2023-01-05T08:47:15;4.15;;;1.40;;
40150;SDS011;25866;52.420;10.640;2023-01-05T08:49:40;6.90;;;1.50;;
40150;SDS011;25866;52.420;10.640;2023-01-05T08:52:06;6.63;;;1.97;;
40150;SDS011;25866;52.420;10.640;2023-01-05T08:54:32;7.60;;;1.93;;
40150;SDS011;25866;52.420;10.640;2023-01-05T08:56:59;6.13;;;1.70;;
40150;SDS011;25866;52.420;10.640;2023-01-05T08:59:25;7.63;;;1.90;;
40150;SDS011;25866;52.420;10.640;2023-01-05T09:01:50;5.55;;;1.45;;
40150;SDS011;25866;52.420;10.640;2023-01-05T09:04:16;4.28;;;1.20;;
40150;SDS011;25866;52.420;10.640;2023-01-05T09:06:42;5.90;;;1.73;;
40150;SDS011;25866;52.420;10.640;2023-01-05T09:09:08;5.90;;;1.23;;
40150;SDS011;25866;52.420;10.640;2023-01-05T09:11:34;2.60;;;0.80;;
40150;SDS011;25866;52.420;10.640;2023-01-05T09:14:00;3.30;;;0.90;;
40150;SDS011;25866;52.420;10.640;2023-01-05T09:16:30;4.97;;;1.03;;
40150;SDS011;25866;52.420;10.640;2023-01-05T09:19:00;4.00;;;0.77;;
40150;SDS011;25866;52.420;10.640;2023-01-05T10:05:34;2.93;;;0.83;;
40150;SDS011;25866;52.420;10.640;2023-01-05T10:11:18;1.83;;;0.77;;
40150;SDS011;25866;52.420;10.640;2023-01-05T10:14:16;1.70;;;0.90;;
40150;SDS011;25866;52.420;10.640;2023-01-05T10:16:49;4.37;;;1.10;;
40150;SDS011;25866;52.420;10.640;2023-01-05T10:19:15;3.03;;;0.80;;
40150;SDS011;25866;52.420;10.640;2023-01-05T10:21:57;7.23;;;1.20;;
40150;SDS011;25866;52.420;10.640;2023-01-05T10:29:42;2.63;;;1.00;;
40150;SDS011;25866;52.420;10.640;2023-01-05T10:32:25;2.47;;;0.90;;
40150;SDS011;25866;52.420;10.640;2023-01-05T10:43:44;5.10;;;1.57;;
40150;SDS011;25866;52.420;10.640;2023-01-05T10:46:33;3.93;;;1.43;;
40150;SDS011;25866;52.420;10.640;2023-01-05T10:49:03;5.67;;;2.10;;
40150;SDS011;25866;52.420;10.640;2023-01-05T10:51:33;4.40;;;1.40;;
40150;SDS011;25866;52.420;10.640;2023-01-05T10:54:01;3.67;;;1.40;;
40150;SDS011;25866;52.420;10.640;2023-01-05T10:56:28;3.30;;;1.50;;
40150;SDS011;25866;52.420;10.640;2023-01-05T10:59:05;5.43;;;1.33;;
40150;SDS011;25866;52.420;10.640;2023-01-05T11:01:35;4.33;;;1.50;;
40150;SDS011;25866;52.420;10.640;2023-01-05T11:04:16;4.37;;;1.20;;
40150;SDS011;25866;52.420;10.640;2023-01-05T11:06:44;6.03;;;1.37;;
40150;SDS011;25866;52.420;10.640;2023-01-05T11:11:39;3.57;;;1.53;;
40150;SDS011;25866;52.420;10.640;2023-01-05T11:14:05;5.90;;;1.23;;
40150;SDS011;25866;52.420;10.640;2023-01-05T11:16:45;3.10;;;1.00;;
40150;SDS011;25866;52.420;10.640;2023-01-05T11:19:15;4.07;;;1.03;;
40150;SDS011;25866;52.420;10.640;2023-01-05T11:21:43;5.53;;;1.03;;
40150;SDS011;25866;52.420;10.640;2023-01-05T11:29:14;3.37;;;1.17;;
40150;SDS011;25866;52.420;10.640;2023-01-05T11:31:43;2.67;;;1.20;;
40150;SDS011;25866;52.420;10.640;2023-01-05T11:34:28;4.40;;;1.17;;
40150;SDS011;25866;52.420;10.640;2023-01-05T11:42:18;1.93;;;0.90;;
40150;SDS011;25866;52.420;10.640;2023-01-05T11:45:06;9.27;;;1.23;;
40150;SDS011;25866;52.420;10.640;2023-01-05T11:48:04;7.40;;;1.10;;
40150;SDS011;25866;52.420;10.640;2023-01-05T11:50:45;2.93;;;0.90;;
40150;SDS011;25866;52.420;10.640;2023-01-05T11:53:23;4.83;;;1.43;;
40150;SDS011;25866;52.420;10.640;2023-01-05T11:56:25;1.97;;;0.60;;
40150;SDS011;25866;52.420;10.640;2023-01-05T11:58:47;3.97;;;0.80;;
40150;SDS011;25866;52.420;10.640;2023-01-05T12:04:02;2.10;;;0.80;;
40150;SDS011;25866;52.420;10.640;2023-01-05T12:12:01;4.00;;;0.70;;
40150;SDS011;25866;52.420;10.640;2023-01-05T12:17:31;3.80;;;1.10;;
40150;SDS011;25866;52.420;10.640;2023-01-05T12:23:07;2.53;;;0.73;;
40150;SDS011;25866;52.420;10.640;2023-01-05T12:37:20;2.43;;;0.60;;
40150;SDS011;25866;52.420;10.640;2023-01-05T12:40:02;5.53;;;1.13;;
40150;SDS011;25866;52.420;10.640;2023-01-05T12:42:43;2.57;;;0.90;;
40150;SDS011;25866;52.420;10.640;2023-01-05T12:45:35;4.43;;;0.93;;
40150;SDS011;25866;52.420;10.640;2023-01-05T12:48:27;3.73;;;0.77;;
40150;SDS011;25866;52.420;10.640;2023-01-05T12:51:15;4.40;;;1.07;;
40150;SDS011;25866;52.420;10.640;2023-01-05T12:54:12;6.63;;;0.83;;
40150;SDS011;25866;52.420;10.640;2023-01-05T12:56:54;1.93;;;0.60;;
40150;SDS011;25866;52.420;10.640;2023-01-05T12:59:31;2.27;;;0.67;;
40150;SDS011;25866;52.420;10.640;2023-01-05T13:02:16;1.30;;;0.60;;
40150;SDS011;25866;52.420;10.640;2023-01-05T13:07:51;4.63;;;0.60;;
40150;SDS011;25866;52.420;10.640;2023-01-05T13:10:44;5.17;;;0.80;;
40150;SDS011;25866;52.420;10.640;2023-01-05T13:13:42;4.77;;;0.87;;
40150;SDS011;25866;52.420;10.640;2023-01-05T13:16:22;2.30;;;0.80;;
40150;SDS011;25866;52.420;10.640;2023-01-05T13:18:58;6.87;;;0.80;;
40150;SDS011;25866;52.420;10.640;2023-01-05T13:21:30;1.93;;;0.70;;
40150;SDS011;25866;52.420;10.640;2023-01-05T13:24:01;2.37;;;0.90;;
40150;SDS011;25866;52.420;10.640;2023-01-05T13:26:30;4.43;;;1.20;;
40150;SDS011;25866;52.420;10.640;2023-01-05T13:28:56;5.23;;;0.80;;
40150;SDS011;25866;52.420;10.640;2023-01-05T13:45:05;2.30;;;0.67;;
40150;SDS011;25866;52.420;10.640;2023-01-05T13:53:16;2.30;;;0.60;;
40150;SDS011;25866;52.420;10.640;2023-01-05T13:55:59;3.10;;;0.70;;
40150;SDS011;25866;52.420;10.640;2023-01-05T13:58:37;5.50;;;1.10;;
40150;SDS011;25866;52.420;10.640;2023-01-05T14:04:00;8.70;;;0.60;;
40150;SDS011;25866;52.420;10.640;2023-01-05T14:06:27;1.53;;;0.60;;
40150;SDS011;25866;52.420;10.640;2023-01-05T14:11:27;2.63;;;0.57;;
40150;SDS011;25866;52.420;10.640;2023-01-05T14:21:57;1.60;;;0.73;;
40150;SDS011;25866;52.420;10.640;2023-01-05T14:24:27;5.07;;;1.80;;
40150;SDS011;25866;52.420;10.640;2023-01-05T14:30:18;9.70;;;4.23;;
40150;SDS011;25866;52.420;10.640;2023-01-05T14:32:27;9.77;;;3.27;;
40150;SDS011;25866;52.420;10.640;2023-01-05T14:34:55;7.30;;;3.03;;
40150;SDS011;25866;52.420;10.640;2023-01-05T14:37:36;7.17;;;2.67;;
40150;SDS011;25866;52.420;10.640;2023-01-05T14:42:54;6.60;;;1.73;;
40150;SDS011;25866;52.420;10.640;2023-01-05T14:47:51;4.80;;;1.57;;
40150;SDS011;25866;52.420;10.640;2023-01-05T14:50:26;4.10;;;1.70;;
40150;SDS011;25866;52.420;10.640;2023-01-05T14:57:56;5.17;;;1.73;;
40150;SDS011;25866;52.420;10.640;2023-01-05T15:00:41;5.60;;;2.27;;
40150;SDS011;25866;52.420;10.640;2023-01-05T15:05:53;2.57;;;1.60;;
40150;SDS011;25866;52.420;10.640;2023-01-05T15:08:41;4.80;;;1.60;;
40150;SDS011;25866;52.420;10.640;2023-01-05T15:14:09;2.10;;;1.30;;
40150;SDS011;25866;52.420;10.640;2023-01-05T15:27:59;3.17;;;1.07;;
40150;SDS011;25866;52.420;10.640;2023-01-05T15:33:18;4.97;;;1.60;;
40150;SDS011;25866;52.420;10.640;2023-01-05T15:36:00;1.90;;;1.10;;
40150;SDS011;25866;52.420;10.640;2023-01-05T15:38:28;4.43;;;1.13;;
40150;SDS011;25866;52.420;10.640;2023-01-05T15:40:59;3.07;;;1.07;;
40150;SDS011;25866;52.420;10.640;2023-01-05T15:43:33;2.63;;;1.27;;
40150;SDS011;25866;52.420;10.640;2023-01-05T15:46:02;3.30;;;1.30;;
40150;SDS011;25866;52.420;10.640;2023-01-05T15:48:33;3.33;;;1.17;;
40150;SDS011;25866;52.420;10.640;2023-01-05T15:51:02;5.27;;;1.40;;
40150;SDS011;25866;52.420;10.640;2023-01-05T15:56:01;3.87;;;1.10;;
40150;SDS011;25866;52.420;10.640;2023-01-05T15:58:29;4.13;;;1.40;;
40150;SDS011;25866;52.420;10.640;2023-01-05T16:03:26;2.80;;;0.93;;
40150;SDS011;25866;52.420;10.640;2023-01-05T16:05:56;6.27;;;1.67;;
40150;SDS011;25866;52.420;10.640;2023-01-05T16:08:24;6.37;;;1.90;;
40150;SDS011;25866;52.420;10.640;2023-01-05T16:10:53;10.60;;;2.20;;
40150;SDS011;25866;52.420;10.640;2023-01-05T16:16:04;6.13;;;2.00;;
40150;SDS011;25866;52.420;10.640;2023-01-05T16:18:38;5.10;;;1.90;;
40150;SDS011;25866;52.420;10.640;2023-01-05T16:21:27;7.43;;;2.90;;
40150;SDS011;25866;52.420;10.640;2023-01-05T16:24:07;14.97;;;2.57;;
40150;SDS011;25866;52.420;10.640;2023-01-05T16:26:38;7.03;;;2.10;;
40150;SDS011;25866;52.420;10.640;2023-01-05T16:32:02;8.80;;;2.70;;
40150;SDS011;25866;52.420;10.640;2023-01-05T16:34:29;4.23;;;1.77;;
40150;SDS011;25866;52.420;10.640;2023-01-05T16:37:14;2.13;;;1.23;;
40150;SDS011;25866;52.420;10.640;2023-01-05T16:39:42;9.13;;;3.80;;
40150;SDS011;25866;52.420;10.640;2023-01-05T16:42:18;5.33;;;1.50;;
40150;SDS011;25866;52.420;10.640;2023-01-05T16:45:23;8.27;;;1.90;;
40150;SDS011;25866;52.420;10.640;2023-01-05T16:47:50;2.00;;;1.50;;
40150;SDS011;25866;52.420;10.640;2023-01-05T16:55:34;4.00;;;1.50;;
40150;SDS011;25866;52.420;10.640;2023-01-05T16:58:02;3.53;;;1.27;;
40150;SDS011;25866;52.420;10.640;2023-01-05T17:00:33;6.78;;;1.55;;
40150;SDS011;25866;52.420;10.640;2023-01-05T17:03:01;8.87;;;1.57;;
40150;SDS011;25866;52.420;10.640;2023-01-05T17:05:45;5.43;;;1.70;;
40150;SDS011;25866;52.420;10.640;2023-01-05T17:10:40;8.60;;;2.10;;
40150;SDS011;25866;52.420;10.640;2023-01-05T17:13:09;6.40;;;1.73;;
40150;SDS011;25866;52.420;10.640;2023-01-05T17:15:49;6.90;;;1.60;;
40150;SDS011;25866;52.420;10.640;2023-01-05T17:18:17;4.37;;;1.40;;
40150;SDS011;25866;52.420;10.640;2023-01-05T17:20:45;5.40;;;1.63;;
40150;SDS011;25866;52.420;10.640;2023-01-05T17:23:13;6.30;;;1.67;;
40150;SDS011;25866;52.420;10.640;2023-01-05T17:25:44;4.70;;;1.40;;
40150;SDS011;25866;52.420;10.640;2023-01-05T17:28:10;4.93;;;1.60;;
40150;SDS011;25866;52.420;10.640;2023-01-05T17:30:35;4.30;;;1.73;;
40150;SDS011;25866;52.420;10.640;2023-01-05T17:33:01;3.00;;;1.63;;
40150;SDS011;25866;52.420;10.640;2023-01-05T17:35:27;7.17;;;1.57;;
40150;SDS011;25866;52.420;10.640;2023-01-05T17:37:53;3.57;;;1.70;;
40150;SDS011;25866;52.420;10.640;2023-01-05T17:40:20;7.27;;;2.10;;
40150;SDS011;25866;52.420;10.640;2023-01-05T17:42:46;5.00;;;1.73;;
40150;SDS011;25866;52.420;10.640;2023-01-05T17:45:14;5.00;;;2.00;;
40150;SDS011;25866;52.420;10.640;2023-01-05T17:47:42;5.65;;;2.08;;
40150;SDS011;25866;52.420;10.640;2023-01-05T17:50:13;4.60;;;2.20;;
40150;SDS011;25866;52.420;10.640;2023-01-05T17:52:41;5.57;;;2.00;;
40150;SDS011;25866;52.420;10.640;2023-01-05T17:55:07;4.17;;;2.07;;
40150;SDS011;25866;52.420;10.640;2023-01-05T17:57:34;3.40;;;1.73;;
40150;SDS011;25866;52.420;10.640;2023-01-05T17:59:59;3.70;;;1.80;;
40150;SDS011;25866;52.420;10.640;2023-01-05T18:02:25;4.60;;;2.10;;
40150;SDS011;25866;52.420;10.640;2023-01-05T18:04:51;5.83;;;2.50;;
40150;SDS011;25866;52.420;10.640;2023-01-05T18:07:16;6.40;;;2.10;;
40150;SDS011;25866;52.420;10.640;2023-01-05T18:09:42;4.37;;;2.10;;
40150;SDS011;25866;52.420;10.640;2023-01-05T18:12:08;4.90;;;2.13;;
40150;SDS011;25866;52.420;10.640;2023-01-05T18:14:33;5.03;;;2.20;;
40150;SDS011;25866;52.420;10.640;2023-01-05T18:16:59;4.63;;;2.10;;
40150;SDS011;25866;52.420;10.640;2023-01-05T18:19:25;5.90;;;1.77;;
40150;SDS011;25866;52.420;10.640;2023-01-05T18:21:51;4.20;;;1.80;;
40150;SDS011;25866;52.420;10.640;2023-01-05T18:24:17;6.67;;;1.67;;
40150;SDS011;25866;52.420;10.640;2023-01-05T18:26:43;7.73;;;1.70;;
40150;SDS011;25866;52.420;10.640;2023-01-05T18:29:08;4.47;;;1.83;;
40150;SDS011;25866;52.420;10.640;2023-01-05T18:31:34;5.23;;;1.70;;
40150;SDS011;25866;52.420;10.640;2023-01-05T18:34:00;5.47;;;2.07;;
40150;SDS011;25866;52.420;10.640;2023-01-05T18:36:26;7.10;;;2.10;;
40150;SDS011;25866;52.420;10.640;2023-01-05T18:38:51;6.47;;;2.00;;
40150;SDS011;25866;52.420;10.640;2023-01-05T18:41:20;8.13;;;1.80;;
40150;SDS011;25866;52.420;10.640;2023-01-05T18:43:49;6.33;;;1.93;;
40150;SDS011;25866;52.420;10.640;2023-01-05T18:46:15;5.97;;;2.03;;